Time;durP1;ratioP1;P1;durP2;ratioP2;P2;SDS_P1;SDS_P2;PMS_P1;PMS_P2;Temp;Humidity;BMP_temperature;BMP_pressure;BME280_temperature;BME280_humidity;BME280_pressure;Samples;Min_cycle;Max_cycle;Signal;HPM_P1;HPM_P2
2024/01/16 00:00:06;;;;;;;;;;;;;;;;;;5056083;28;19931;-68
2024/01/16 00:02:32;;;;;;;;;;;;;;;;;;5055455;28;19908;-68
2024/01/16 00:04:58;;;;;;;;;;;;;;;;;;5054995;28;19912;-68
2024/01/16 00:07:25;;;;;;;;;;;;;;;;;;5055472;28;19916;-69
2024/01/16 00:09:53;;;;;;;;;;;;;;;;;;5055284;28;19916;-68
2024/01/16 00:12:19;;;;;;;;;;;;;;;;;;5053561;28;19920;-69
2024/01/16 00:14:45;;;;;;;;;;;;;;;;;;5055222;28;19913;-69
2024/01/16 00:17:11;;;;;;;;;;;;;;;;;;5055197;28;19936;-69
2024/01/16 00:19:37;;;;;;;;;;;;;;;;;;5054866;28;20360;-69
2024/01/16 00:22:04;;;;;;;;;;;;;;;;;;5053809;28;19947;-69
2024/01/16 00:24:30;;;;;;;;;;;;;;;;;;5054968;28;19952;-69
2024/01/16 00:26:56;;;;;;;;;;;;;;;;;;5054574;28;19954;-69
2024/01/16 00:29:23;;;;;;;;;;;;;;;;;;5055007;28;20272;-69
2024/01/16 00:31:49;;;;;;;;;;;;;;;;;;5054836;28;19909;-69
2024/01/16 00:34:15;;;;;;;;;;;;;;;;;;5054421;28;19962;-69
2024/01/16 00:36:41;;;;;;;;;;;;;;;;;;5055197;28;20288;-69
2024/01/16 00:39:08;;;;;;;;;;;;;;;;;;5054387;28;19909;-69
2024/01/16 00:41:33;;;;;;;;;;;;;;;;;;5054888;28;19999;-68
2024/01/16 00:43:59;;;;;;;;;;;;;;;;;;5053271;28;19971;-69
2024/01/16 00:46:25;;;;;;;;;;;;;;;;;;5054170;28;19917;-69
2024/01/16 00:48:51;;;;;;;;;;;;;;;;;;5054830;28;20399;-69
2024/01/16 00:51:17;;;;;;;;;;;;;;;;;;5053045;28;20270;-68
2024/01/16 00:53:43;;;;;;;;;;;;;;;;;;5054144;28;19908;-68
2024/01/16 00:56:09;;;;;;;;;;;;;;;;;;5054279;28;19960;-68
2024/01/16 00:58:35;;;;;;;;;;;;;;;;;;5054395;28;19954;-68
2024/01/16 01:01:01;;;;;;;;;;;;;;;;;;5053919;28;19915;-68
2024/01/16 01:03:27;;;;;;;;;;;;;;;;;;5053095;28;19962;-67
2024/01/16 01:05:53;;;;;;;;;;;;;;;;;;5054821;28;19949;-67
2024/01/16 01:08:19;;;;;;;;;;;;;;;;;;5053808;28;20365;-69
2024/01/16 01:10:45;;;;;;;;;;;;;;;;;;5054379;28;20323;-68
2024/01/16 01:13:11;;;;;;;;;;;;;;;;;;5054139;28;20312;-68
2024/01/16 01:15:37;;;;;;;;;;;;;;;;;;5053742;28;19909;-67
2024/01/16 01:18:03;;;;;;;;;;;;;;;;;;5052876;28;20285;-67
2024/01/16 01:20:29;;;;;;;;;;;;;;;;;;5054026;28;19948;-68
2024/01/16 01:22:55;;;;;;;;;;;;;;;;;;5053635;28;20390;-68
2024/01/16 01:25:21;;;;;;;;;;;;;;;;;;5052641;28;19916;-68
2024/01/16 01:27:47;;;;;;;;;;;;;;;;;;5053946;28;19908;-68
2024/01/16 01:30:13;;;;;;;;;;;;;;;;;;5053682;28;20517;-69
2024/01/16 01:32:39;;;;;;;;;;;;;;;;;;5053933;28;19913;-69
2024/01/16 01:35:05;;;;;;;;;;;;;;;;;;5052576;28;19915;-69
2024/01/16 01:37:31;;;;;;;;;;;;;;;;;;5053442;28;19909;-69
2024/01/16 01:39:57;;;;;;;;;;;;;;;;;;5054130;28;19909;-68
2024/01/16 01:42:23;;;;;;;;;;;;;;;;;;5053379;28;20008;-68
2024/01/16 01:44:49;;;;;;;;;;;;;;;;;;5053708;28;19909;-68
2024/01/16 01:47:15;;;;;;;;;;;;;;;;;;5053729;28;19920;-68
2024/01/16 01:49:41;;;;;;;;;;;;;;;;;;5053481;28;19916;-68
2024/01/16 01:52:07;;;;;;;;;;;;;;;;;;5053697;28;19909;-68
2024/01/16 01:54:33;;;;;;;;;;;;;;;;;;5053984;28;19913;-68
2024/01/16 01:56:59;;;;;;;;;;;;;;;;;;5053194;28;19921;-68
2024/01/16 01:59:25;;;;;;;;;;;;;;;;;;5053630;28;19909;-68
2024/01/16 02:01:52;;;;;;;;;;;;;;;;;;5053698;28;19915;-68
2024/01/16 02:04:18;;;;;;;;;;;;;;;;;;5056044;28;20293;-68
2024/01/16 02:06:44;;;;;;;;;;;;;;;;;;5057996;28;19927;-68
2024/01/16 02:09:10;;;;;;;;;;;;;;;;;;5057657;28;20320;-68
2024/01/16 02:11:36;;;;;;;;;;;;;;;;;;5057248;28;20007;-68
2024/01/16 02:14:02;;;;;;;;;;;;;;;;;;5057529;28;19916;-68
2024/01/16 02:16:28;;;;;;;;;;;;;;;;;;5056173;28;19916;-68
2024/01/16 02:18:54;;;;;;;;;;;;;;;;;;5057082;28;20007;-68
2024/01/16 02:21:20;;;;;;;;;;;;;;;;;;5056147;28;19954;-68
2024/01/16 02:23:46;;;;;;;;;;;;;;;;;;5057348;28;19909;-68
2024/01/16 02:26:12;;;;;;;;;;;;;;;;;;5056937;28;19916;-68
2024/01/16 02:28:38;;;;;;;;;;;;;;;;;;5057392;28;19916;-68
2024/01/16 02:31:04;;;;;;;;;;;;;;;;;;5057390;28;20000;-68
2024/01/16 02:33:30;;;;;;;;;;;;;;;;;;5056715;28;20365;-68
2024/01/16 02:35:56;;;;;;;;;;;;;;;;;;5057122;28;20325;-68
2024/01/16 02:38:22;;;;;;;;;;;;;;;;;;5057139;28;19909;-68
2024/01/16 02:40:48;;;;;;;;;;;;;;;;;;5055371;28;20353;-68
2024/01/16 02:43:13;;;;;;;;;;;;;;;;;;5057041;28;20376;-68
2024/01/16 02:45:39;;;;;;;;;;;;;;;;;;5056472;28;20003;-68
2024/01/16 02:48:05;;;;;;;;;;;;;;;;;;5056892;28;19908;-68
2024/01/16 02:50:31;;;;;;;;;;;;;;;;;;5057123;28;19908;-68
2024/01/16 02:52:57;;;;;;;;;;;;;;;;;;5056468;28;19935;-68
2024/01/16 02:55:23;;;;;;;;;;;;;;;;;;5056344;28;19913;-68
2024/01/16 02:57:50;;;;;;;;;;;;;;;;;;5055701;28;19956;-68
2024/01/16 03:00:17;;;;;;;;;;;;;;;;;;5055043;28;19908;-68
2024/01/16 03:02:43;;;;;;;;;;;;;;;;;;5055378;28;20388;-68
2024/01/16 03:05:09;;;;;;;;;;;;;;;;;;5055423;28;19962;-68
2024/01/16 03:07:35;;;;;;;;;;;;;;;;;;5054944;28;20346;-68
2024/01/16 03:10:01;;;;;;;;;;;;;;;;;;5055288;28;20019;-68
2024/01/16 03:12:27;;;;;;;;;;;;;;;;;;5055300;28;19976;-68
2024/01/16 03:14:54;;;;;;;;;;;;;;;;;;5054436;28;20373;-68
2024/01/16 03:17:20;;;;;;;;;;;;;;;;;;5055134;28;19916;-68
2024/01/16 03:19:45;;;;;;;;;;;;;;;;;;5055182;28;20358;-67
2024/01/16 03:22:11;;;;;;;;;;;;;;;;;;5054688;28;20305;-68
2024/01/16 03:24:37;;;;;;;;;;;;;;;;;;5055261;28;19909;-68
2024/01/16 03:27:04;;;;;;;;;;;;;;;;;;5055051;28;20117;-68
2024/01/16 03:29:30;;;;;;;;;;;;;;;;;;5054618;28;19915;-68
2024/01/16 03:31:56;;;;;;;;;;;;;;;;;;5055105;28;20411;-68
2024/01/16 03:34:22;;;;;;;;;;;;;;;;;;5053637;28;19909;-68
2024/01/16 03:36:48;;;;;;;;;;;;;;;;;;5054582;28;19917;-68
2024/01/16 03:39:14;;;;;;;;;;;;;;;;;;5055199;28;19913;-68
2024/01/16 03:41:40;;;;;;;;;;;;;;;;;;5054807;28;19932;-68
2024/01/16 03:44:06;;;;;;;;;;;;;;;;;;5054383;28;19908;-68
2024/01/16 03:46:32;;;;;;;;;;;;;;;;;;5054837;28;19917;-67
2024/01/16 03:48:58;;;;;;;;;;;;;;;;;;5054321;28;19954;-67
2024/01/16 03:51:23;;;;;;;;;;;;;;;;;;5055046;28;19913;-67
2024/01/16 03:53:49;;;;;;;;;;;;;;;;;;5053372;28;19994;-67
2024/01/16 03:56:16;;;;;;;;;;;;;;;;;;4961943;28;2633601;-67
2024/01/16 03:58:42;;;;;;;;;;;;;;;;;;5055715;28;19916;-67
2024/01/16 04:01:07;;;;;;;;;;;;;;;;;;5055501;28;19905;-67
2024/01/16 04:03:34;;;;;;;;;;;;;;;;;;5055343;28;19913;-67
2024/01/16 04:06:00;;;;;;;;;;;;;;;;;;5054095;28;19917;-68
2024/01/16 04:08:26;;;;;;;;;;;;;;;;;;5055592;28;20414;-68
2024/01/16 04:10:52;;;;;;;;;;;;;;;;;;5055288;28;20280;-67
2024/01/16 04:13:18;;;;;;;;;;;;;;;;;;5054031;28;19931;-67
2024/01/16 04:15:44;;;;;;;;;;;;;;;;;;5054480;28;19923;-67
2024/01/16 04:18:10;;;;;;;;;;;;;;;;;;5055145;28;20011;-67
2024/01/16 04:20:36;;;;;;;;;;;;;;;;;;5055161;28;19944;-67
2024/01/16 04:23:02;;;;;;;;;;;;;;;;;;5053777;28;19909;-67
2024/01/16 04:25:28;;;;;;;;;;;;;;;;;;5054038;28;19923;-67
2024/01/16 04:27:54;;;;;;;;;;;;;;;;;;5055320;28;19913;-67
2024/01/16 04:30:20;;;;;;;;;;;;;;;;;;5055053;28;20349;-67
2024/01/16 04:32:46;;;;;;;;;;;;;;;;;;5054526;28;20349;-67
2024/01/16 04:35:12;;;;;;;;;;;;;;;;;;5053556;28;19909;-68
2024/01/16 04:37:38;;;;;;;;;;;;;;;;;;5054935;28;19916;-68
2024/01/16 04:40:05;;;;;;;;;;;;;;;;;;5054478;28;19913;-68
2024/01/16 04:42:31;;;;;;;;;;;;;;;;;;5054798;28;20373;-69
2024/01/16 04:44:57;;;;;;;;;;;;;;;;;;5054618;28;19908;-67
2024/01/16 04:47:23;;;;;;;;;;;;;;;;;;5053100;28;19988;-67
2024/01/16 04:49:49;;;;;;;;;;;;;;;;;;5053370;28;20392;-67
2024/01/16 04:52:15;;;;;;;;;;;;;;;;;;5054088;28;20261;-68
2024/01/16 04:54:41;;;;;;;;;;;;;;;;;;5054578;28;20254;-67
2024/01/16 04:57:07;;;;;;;;;;;;;;;;;;5053058;28;19943;-67
2024/01/16 04:59:33;;;;;;;;;;;;;;;;;;5053969;28;19909;-67
2024/01/16 05:01:59;;;;;;;;;;;;;;;;;;5054343;28;19932;-67
2024/01/16 05:04:25;;;;;;;;;;;;;;;;;;5054289;28;19908;-68
2024/01/16 05:06:51;;;;;;;;;;;;;;;;;;5053775;28;19917;-68
2024/01/16 05:09:19;;;;;;;;;;;;;;;;;;5054353;28;19909;-68
2024/01/16 05:11:45;;;;;;;;;;;;;;;;;;5054206;28;19909;-67
2024/01/16 05:14:11;;;;;;;;;;;;;;;;;;5053678;28;19915;-68
2024/01/16 05:16:37;;;;;;;;;;;;;;;;;;5054131;28;19908;-68
2024/01/16 05:19:03;;;;;;;;;;;;;;;;;;5054089;28;19909;-68
2024/01/16 05:21:29;;;;;;;;;;;;;;;;;;5053793;28;19908;-68
2024/01/16 05:23:56;;;;;;;;;;;;;;;;;;5052740;28;19916;-68
2024/01/16 05:26:22;;;;;;;;;;;;;;;;;;5053940;28;19917;-68
2024/01/16 05:28:48;;;;;;;;;;;;;;;;;;5052280;28;19916;-68
2024/01/16 05:31:14;;;;;;;;;;;;;;;;;;5054161;28;19916;-68
2024/01/16 05:33:40;;;;;;;;;;;;;;;;;;5052624;28;19909;-68
2024/01/16 05:36:05;;;;;;;;;;;;;;;;;;5053472;28;20277;-68
2024/01/16 05:38:31;;;;;;;;;;;;;;;;;;5053711;28;19913;-68
2024/01/16 05:40:57;;;;;;;;;;;;;;;;;;5053793;28;19909;-68
2024/01/16 05:43:23;;;;;;;;;;;;;;;;;;5053372;28;19955;-68
2024/01/16 05:45:50;;;;;;;;;;;;;;;;;;5053975;28;19916;-68
2024/01/16 05:48:16;;;;;;;;;;;;;;;;;;5053686;28;19909;-69
2024/01/16 05:50:42;;;;;;;;;;;;;;;;;;5053307;28;19955;-68
2024/01/16 05:53:08;;;;;;;;;;;;;;;;;;5053645;28;19913;-68
2024/01/16 05:55:36;;;;;;;;;;;;;;;;;;5053507;28;19924;-67
2024/01/16 05:58:02;;;;;;;;;;;;;;;;;;5053685;28;19923;-68
2024/01/16 06:00:28;;;;;;;;;;;;;;;;;;5053874;28;19909;-68
2024/01/16 06:02:54;;;;;;;;;;;;;;;;;;5053122;28;19920;-69
2024/01/16 06:05:20;;;;;;;;;;;;;;;;;;5053469;28;19917;-69
2024/01/16 06:07:46;;;;;;;;;;;;;;;;;;5053458;28;20011;-68
2024/01/16 06:10:12;;;;;;;;;;;;;;;;;;5053084;28;20051;-67
2024/01/16 06:12:38;;;;;;;;;;;;;;;;;;5053488;28;19908;-67
2024/01/16 06:15:04;;;;;;;;;;;;;;;;;;5053448;28;19983;-67
2024/01/16 06:17:30;;;;;;;;;;;;;;;;;;5053286;28;20361;-68
2024/01/16 06:19:56;;;;;;;;;;;;;;;;;;5053374;28;19916;-68
2024/01/16 06:22:22;;;;;;;;;;;;;;;;;;5053431;28;19913;-68
2024/01/16 06:24:48;;;;;;;;;;;;;;;;;;5051710;28;19935;-68
2024/01/16 06:27:18;;;;;;;;;;;;;;;;;;5053371;28;19913;-69
2024/01/16 06:29:44;;;;;;;;;;;;;;;;;;5053250;28;19913;-68
2024/01/16 06:32:10;;;;;;;;;;;;;;;;;;5052878;28;19916;-68
2024/01/16 06:34:36;;;;;;;;;;;;;;;;;;5053172;28;19940;-68
2024/01/16 06:37:02;;;;;;;;;;;;;;;;;;5053498;28;19916;-67
2024/01/16 06:39:28;;;;;;;;;;;;;;;;;;5052759;28;19915;-67
2024/01/16 06:41:54;;;;;;;;;;;;;;;;;;5051546;28;19913;-67
2024/01/16 06:44:20;;;;;;;;;;;;;;;;;;5051699;28;19909;-68
2024/01/16 06:46:46;;;;;;;;;;;;;;;;;;5052538;28;19917;-67
2024/01/16 06:49:12;;;;;;;;;;;;;;;;;;5053100;28;20392;-68
2024/01/16 06:51:38;;;;;;;;;;;;;;;;;;5054731;28;19916;-68
2024/01/16 06:54:04;;;;;;;;;;;;;;;;;;5054787;28;19913;-69
2024/01/16 06:56:30;;;;;;;;;;;;;;;;;;5054185;28;20308;-68
2024/01/16 06:58:56;;;;;;;;;;;;;;;;;;5053269;28;19919;-68
2024/01/16 07:01:22;;;;;;;;;;;;;;;;;;5052128;28;19974;-67
2024/01/16 07:03:48;;;;;;;;;;;;;;;;;;5056587;28;19936;-67
2024/01/16 07:06:14;;;;;;;;;;;;;;;;;;5055397;28;19956;-70
2024/01/16 07:08:40;;;;;;;;;;;;;;;;;;5055156;28;19916;-69
2024/01/16 07:11:08;;;;;;;;;;;;;;;;;;5056264;28;19909;-69
2024/01/16 07:13:34;;;;;;;;;;;;;;;;;;5056063;28;19959;-68
2024/01/16 07:16:00;;;;;;;;;;;;;;;;;;5056236;28;19908;-68
2024/01/16 07:18:26;;;;;;;;;;;;;;;;;;5052963;28;19970;-66
2024/01/16 07:20:52;;;;;;;;;;;;;;;;;;5053308;28;19913;-66
2024/01/16 07:23:18;;;;;;;;;;;;;;;;;;5051986;28;20365;-66
2024/01/16 07:25:45;;;;;;;;;;;;;;;;;;5048124;28;19932;-66
2024/01/16 07:28:12;;;;;;;;;;;;;;;;;;5049149;28;20361;-67
2024/01/16 07:30:39;;;;;;;;;;;;;;;;;;5054817;28;19917;-67
2024/01/16 07:33:05;;;;;;;;;;;;;;;;;;5053455;28;20370;-67
2024/01/16 07:35:31;;;;;;;;;;;;;;;;;;5054587;28;19913;-68
2024/01/16 07:37:57;;;;;;;;;;;;;;;;;;5051275;28;20479;-69
2024/01/16 07:40:23;;;;;;;;;;;;;;;;;;5052624;28;20031;-65
2024/01/16 07:42:49;;;;;;;;;;;;;;;;;;5052883;28;19919;-69
2024/01/16 07:45:15;;;;;;;;;;;;;;;;;;5054864;28;19921;-68
2024/01/16 07:47:41;;;;;;;;;;;;;;;;;;5054686;28;19959;-66
2024/01/16 07:50:07;;;;;;;;;;;;;;;;;;5052557;28;19908;-66
2024/01/16 07:52:33;;;;;;;;;;;;;;;;;;5054985;28;20245;-66
2024/01/16 07:54:59;;;;;;;;;;;;;;;;;;5054689;28;19912;-67
2024/01/16 07:57:25;;;;;;;;;;;;;;;;;;5051482;28;19921;-67
2024/01/16 07:59:51;;;;;;;;;;;;;;;;;;5052373;28;19952;-66
2024/01/16 08:02:17;;;;;;;;;;;;;;;;;;5051118;28;19916;-67
2024/01/16 08:04:44;;;;;;;;;;;;;;;;;;5053365;28;19915;-66
2024/01/16 08:07:10;;;;;;;;;;;;;;;;;;5048763;28;19917;-68
2024/01/16 08:09:36;;;;;;;;;;;;;;;;;;5053090;28;19919;-66
2024/01/16 08:12:02;;;;;;;;;;;;;;;;;;5052237;28;19964;-66
2024/01/16 08:14:29;;;;;;;;;;;;;;;;;;5052600;28;19920;-65
2024/01/16 08:16:54;;;;;;;;;;;;;;;;;;5051985;28;19948;-65
2024/01/16 08:19:20;;;;;;;;;;;;;;;;;;5051025;28;19964;-64
2024/01/16 08:21:47;;;;;;;;;;;;;;;;;;5052057;28;19909;-66
2024/01/16 08:24:13;;;;;;;;;;;;;;;;;;5051564;28;19919;-68
2024/01/16 08:26:39;;;;;;;;;;;;;;;;;;5052964;28;19924;-66
2024/01/16 08:29:05;;;;;;;;;;;;;;;;;;5052608;28;19928;-65
2024/01/16 08:31:31;;;;;;;;;;;;;;;;;;5051290;28;19913;-67
2024/01/16 08:33:57;;;;;;;;;;;;;;;;;;5050880;28;19916;-66
2024/01/16 08:36:23;;;;;;;;;;;;;;;;;;5050489;28;19974;-67
2024/01/16 08:38:49;;;;;;;;;;;;;;;;;;5047006;28;19913;-66
2024/01/16 08:41:15;;;;;;;;;;;;;;;;;;5051987;28;19920;-65
2024/01/16 08:43:43;;;;;;;;;;;;;;;;;;5051667;28;19912;-68
2024/01/16 08:46:09;;;;;;;;;;;;;;;;;;5050489;28;19916;-67
2024/01/16 08:48:36;;;;;;;;;;;;;;;;;;5046718;28;19959;-66
2024/01/16 08:51:02;;;;;;;;;;;;;;;;;;5042500;28;19916;-67
2024/01/16 08:53:28;;;;;;;;;;;;;;;;;;5050278;28;20363;-68
2024/01/16 08:55:54;;;;;;;;;;;;;;;;;;5063806;28;19925;-68
2024/01/16 08:58:20;;;;;;;;;;;;;;;;;;5030636;28;19995;-68
2024/01/16 09:00:47;;;;;;;;;;;;;;;;;;5068993;28;20288;-68
2024/01/16 09:03:13;;;;;;;;;;;;;;;;;;5049821;28;19909;-72
2024/01/16 09:05:39;;;;;;;;;;;;;;;;;;5048807;28;20807;-69
2024/01/16 09:08:05;;;;;;;;;;;;;;;;;;5049406;28;19938;-68
2024/01/16 09:10:31;;;;;;;;;;;;;;;;;;5050014;28;19916;-67
2024/01/16 09:13:02;;;;;;;;;;;;;;;;;;5046846;28;19920;-68
2024/01/16 09:15:29;;;;;;;;;;;;;;;;;;5048060;28;20012;-68
2024/01/16 09:17:55;;;;;;;;;;;;;;;;;;5047614;28;20361;-67
2024/01/16 09:20:21;;;;;;;;;;;;;;;;;;5046026;28;19916;-69
2024/01/16 09:22:47;;;;;;;;;;;;;;;;;;5047618;28;20369;-69
2024/01/16 09:25:13;;;;;;;;;;;;;;;;;;5048225;28;19963;-69
2024/01/16 09:27:39;;;;;;;;;;;;;;;;;;5047769;28;19912;-69
2024/01/16 09:30:05;;;;;;;;;;;;;;;;;;5047995;28;19915;-69
2024/01/16 09:32:31;;;;;;;;;;;;;;;;;;5048768;28;19968;-69
2024/01/16 09:34:58;;;;;;;;;;;;;;;;;;5050585;28;19913;-68
2024/01/16 09:37:24;;;;;;;;;;;;;;;;;;5049143;28;19940;-67
2024/01/16 09:39:51;;;;;;;;;;;;;;;;;;5049869;28;19913;-66
2024/01/16 09:42:17;;;;;;;;;;;;;;;;;;5049362;28;19917;-69
2024/01/16 09:44:43;;;;;;;;;;;;;;;;;;5050771;28;19913;-67
2024/01/16 09:47:09;;;;;;;;;;;;;;;;;;5051942;28;20436;-66
2024/01/16 09:49:36;;;;;;;;;;;;;;;;;;5044981;28;19913;-68
2024/01/16 09:52:03;;;;;;;;;;;;;;;;;;5050432;28;19913;-68
2024/01/16 09:54:29;;;;;;;;;;;;;;;;;;5051658;28;19958;-68
2024/01/16 09:56:55;;;;;;;;;;;;;;;;;;5048649;28;20182;-66
2024/01/16 09:59:21;;;;;;;;;;;;;;;;;;5049959;28;19913;-66
2024/01/16 10:01:47;;;;;;;;;;;;;;;;;;5052744;28;19991;-67
2024/01/16 10:04:15;;;;;;;;;;;;;;;;;;5052237;28;19934;-68
2024/01/16 10:06:41;;;;;;;;;;;;;;;;;;5055872;28;20407;-68
2024/01/16 10:09:08;;;;;;;;;;;;;;;;;;5054728;28;19913;-70
2024/01/16 10:11:34;;;;;;;;;;;;;;;;;;5049358;28;19917;-69
2024/01/16 10:14:01;;;;;;;;;;;;;;;;;;5044928;28;19929;-67
2024/01/16 10:16:27;;;;;;;;;;;;;;;;;;5050192;28;19912;-68
2024/01/16 10:18:53;;;;;;;;;;;;;;;;;;5049791;28;20335;-67
2024/01/16 10:21:18;;;;;;;;;;;;;;;;;;5048762;28;19916;-67
2024/01/16 10:23:45;;;;;;;;;;;;;;;;;;5049773;28;19920;-68
2024/01/16 10:26:11;;;;;;;;;;;;;;;;;;5061526;28;20008;-66
2024/01/16 10:28:37;;;;;;;;;;;;;;;;;;5054897;28;20000;-67
2024/01/16 10:31:03;;;;;;;;;;;;;;;;;;5050721;28;19913;-68
2024/01/16 10:33:29;;;;;;;;;;;;;;;;;;5054675;28;19962;-67
2024/01/16 10:35:55;;;;;;;;;;;;;;;;;;5054169;28;19917;-68
2024/01/16 10:38:22;;;;;;;;;;;;;;;;;;5051914;28;19909;-67
2024/01/16 10:40:48;;;;;;;;;;;;;;;;;;5053361;28;19917;-67
2024/01/16 10:43:14;;;;;;;;;;;;;;;;;;5053526;28;19961;-67
2024/01/16 10:45:40;;;;;;;;;;;;;;;;;;5054183;28;19920;-68
2024/01/16 10:48:06;;;;;;;;;;;;;;;;;;5053848;28;19924;-66
2024/01/16 10:50:31;;;;;;;;;;;;;;;;;;5056958;28;20284;-68
2024/01/16 10:52:58;;;;;;;;;;;;;;;;;;5052204;28;19913;-67
2024/01/16 10:55:23;;;;;;;;;;;;;;;;;;5053644;28;19921;-68
2024/01/16 10:57:50;;;;;;;;;;;;;;;;;;5053562;28;20566;-67
2024/01/16 11:00:16;;;;;;;;;;;;;;;;;;5053695;28;19909;-67
2024/01/16 11:02:42;;;;;;;;;;;;;;;;;;5051613;28;19938;-67
2024/01/16 11:05:08;;;;;;;;;;;;;;;;;;5054728;28;19927;-67
2024/01/16 11:07:34;;;;;;;;;;;;;;;;;;5055377;28;19913;-67
2024/01/16 11:10:00;;;;;;;;;;;;;;;;;;5054661;28;19916;-66
2024/01/16 11:12:26;;;;;;;;;;;;;;;;;;5053350;28;20284;-67
2024/01/16 11:14:52;;;;;;;;;;;;;;;;;;5052650;28;19968;-67
2024/01/16 11:17:19;;;;;;;;;;;;;;;;;;5055204;28;19956;-67
2024/01/16 11:19:45;;;;;;;;;;;;;;;;;;5054889;28;20316;-67
2024/01/16 11:22:11;;;;;;;;;;;;;;;;;;5049111;28;19987;-68
2024/01/16 11:24:37;;;;;;;;;;;;;;;;;;5055017;28;20361;-66
2024/01/16 11:27:03;;;;;;;;;;;;;;;;;;5054908;28;20289;-66
2024/01/16 11:29:29;;;;;;;;;;;;;;;;;;5053781;28;20384;-67
2024/01/16 11:31:55;;;;;;;;;;;;;;;;;;5054438;28;19909;-67
2024/01/16 11:34:21;;;;;;;;;;;;;;;;;;5053778;28;19955;-67
2024/01/16 11:36:47;;;;;;;;;;;;;;;;;;5055189;28;20376;-68
2024/01/16 11:39:13;;;;;;;;;;;;;;;;;;5048404;28;20270;-67
2024/01/16 11:41:39;;;;;;;;;;;;;;;;;;5052708;28;19908;-67
2024/01/16 11:44:05;;;;;;;;;;;;;;;;;;5053805;28;20349;-67
2024/01/16 11:46:31;;;;;;;;;;;;;;;;;;5054462;28;20284;-68
2024/01/16 11:48:57;;;;;;;;;;;;;;;;;;5054255;28;19921;-67
2024/01/16 11:51:23;;;;;;;;;;;;;;;;;;5050895;28;19908;-66
2024/01/16 11:53:49;;;;;;;;;;;;;;;;;;5054929;28;19963;-67
2024/01/16 11:56:15;;;;;;;;;;;;;;;;;;5054196;28;19921;-66
2024/01/16 11:58:41;;;;;;;;;;;;;;;;;;5054814;28;19923;-66
2024/01/16 12:01:08;;;;;;;;;;;;;;;;;;5055215;28;20346;-67
2024/01/16 12:03:34;;;;;;;;;;;;;;;;;;5055380;28;19920;-68
2024/01/16 12:06:00;;;;;;;;;;;;;;;;;;5053272;28;19921;-68
2024/01/16 12:08:26;;;;;;;;;;;;;;;;;;5053090;28;20000;-67
2024/01/16 12:10:52;;;;;;;;;;;;;;;;;;5053255;28;19909;-67
2024/01/16 12:13:17;;;;;;;;;;;;;;;;;;5053252;28;19909;-67
2024/01/16 12:15:43;;;;;;;;;;;;;;;;;;5053033;28;19939;-67
2024/01/16 12:18:09;;;;;;;;;;;;;;;;;;5053476;28;19909;-68
2024/01/16 12:20:35;;;;;;;;;;;;;;;;;;5053752;28;20438;-68
2024/01/16 12:23:02;;;;;;;;;;;;;;;;;;5051253;28;19913;-65
2024/01/16 12:25:28;;;;;;;;;;;;;;;;;;5051389;28;20329;-66
2024/01/16 12:27:53;;;;;;;;;;;;;;;;;;5053181;28;19923;-67
2024/01/16 12:30:19;;;;;;;;;;;;;;;;;;5052765;28;19962;-67
2024/01/16 12:32:45;;;;;;;;;;;;;;;;;;5059155;28;19912;-66
2024/01/16 12:35:11;;;;;;;;;;;;;;;;;;5056424;28;20453;-67
2024/01/16 12:37:38;;;;;;;;;;;;;;;;;;5052701;28;20258;-67
2024/01/16 12:40:05;;;;;;;;;;;;;;;;;;5056254;28;19912;-67
2024/01/16 12:42:32;;;;;;;;;;;;;;;;;;5063762;28;19943;-67
2024/01/16 12:44:59;;;;;;;;;;;;;;;;;;5056967;28;20357;-67
2024/01/16 12:47:25;;;;;;;;;;;;;;;;;;5054020;28;19913;-67
2024/01/16 12:49:51;;;;;;;;;;;;;;;;;;5053212;28;20327;-68
2024/01/16 12:52:18;;;;;;;;;;;;;;;;;;5054115;28;19909;-67
2024/01/16 12:54:44;;;;;;;;;;;;;;;;;;5054497;28;19951;-67
2024/01/16 12:57:13;;;;;;;;;;;;;;;;;;5052809;28;19932;-66
2024/01/16 12:59:39;;;;;;;;;;;;;;;;;;5054267;28;19909;-67
2024/01/16 13:02:05;;;;;;;;;;;;;;;;;;5054135;28;19943;-70
2024/01/16 13:04:31;;;;;;;;;;;;;;;;;;5053858;28;19955;-68
2024/01/16 13:06:57;;;;;;;;;;;;;;;;;;5054253;28;19916;-69
2024/01/16 13:09:23;;;;;;;;;;;;;;;;;;5054290;28;19916;-69
2024/01/16 13:11:50;;;;;;;;;;;;;;;;;;5053898;28;19912;-69
2024/01/16 13:14:16;;;;;;;;;;;;;;;;;;5054169;28;19908;-69
2024/01/16 13:16:42;;;;;;;;;;;;;;;;;;5054150;28;20328;-69
2024/01/16 13:19:10;;;;;;;;;;;;;;;;;;5053805;28;19908;-69
2024/01/16 13:21:36;;;;;;;;;;;;;;;;;;5052690;28;19909;-69
2024/01/16 13:24:02;;;;;;;;;;;;;;;;;;5052719;28;20383;-69
2024/01/16 13:26:28;;;;;;;;;;;;;;;;;;5053669;28;20423;-69
2024/01/16 13:28:54;;;;;;;;;;;;;;;;;;5054057;28;19951;-69
2024/01/16 13:31:20;;;;;;;;;;;;;;;;;;5054057;28;19916;-69
2024/01/16 13:33:46;;;;;;;;;;;;;;;;;;5053026;28;19909;-69
2024/01/16 13:36:12;;;;;;;;;;;;;;;;;;5053845;28;19909;-69
2024/01/16 13:38:38;;;;;;;;;;;;;;;;;;5053694;28;19909;-69
2024/01/16 13:41:04;;;;;;;;;;;;;;;;;;5053299;28;19913;-69
2024/01/16 13:43:30;;;;;;;;;;;;;;;;;;5053664;28;19913;-69
2024/01/16 13:45:56;;;;;;;;;;;;;;;;;;5053662;28;19963;-68
2024/01/16 13:48:22;;;;;;;;;;;;;;;;;;5053244;28;19916;-68
2024/01/16 13:50:48;;;;;;;;;;;;;;;;;;5052394;28;19909;-69
2024/01/16 13:53:14;;;;;;;;;;;;;;;;;;5053832;28;19939;-69
2024/01/16 13:55:41;;;;;;;;;;;;;;;;;;5053158;28;19928;-69
2024/01/16 13:58:07;;;;;;;;;;;;;;;;;;5054603;28;19908;-70
2024/01/16 14:00:33;;;;;;;;;;;;;;;;;;5057924;28;20410;-70
2024/01/16 14:02:59;;;;;;;;;;;;;;;;;;5057432;28;19913;-69
2024/01/16 14:05:26;;;;;;;;;;;;;;;;;;5057610;28;19924;-70
2024/01/16 14:07:52;;;;;;;;;;;;;;;;;;5057430;28;19909;-69
2024/01/16 14:10:18;;;;;;;;;;;;;;;;;;5057626;28;20270;-69
2024/01/16 14:12:44;;;;;;;;;;;;;;;;;;5057574;28;19913;-69
2024/01/16 14:15:19;;;;;;;;;;;;;;;;;;5055915;28;19909;-69
2024/01/16 14:17:45;;;;;;;;;;;;;;;;;;5057704;28;20373;-68
2024/01/16 14:20:11;;;;;;;;;;;;;;;;;;5057472;28;19935;-69
2024/01/16 14:22:40;;;;;;;;;;;;;;;;;;5056986;28;19909;-68
2024/01/16 14:25:10;;;;;;;;;;;;;;;;;;5057166;28;19909;-68
2024/01/16 14:27:36;;;;;;;;;;;;;;;;;;5057332;28;20011;-70
2024/01/16 14:30:02;;;;;;;;;;;;;;;;;;5056862;28;19944;-69
2024/01/16 14:32:28;;;;;;;;;;;;;;;;;;5057513;28;19916;-69
2024/01/16 14:34:54;;;;;;;;;;;;;;;;;;5057163;28;19936;-69
2024/01/16 14:37:20;;;;;;;;;;;;;;;;;;5056687;28;20349;-68
2024/01/16 14:39:46;;;;;;;;;;;;;;;;;;5057481;28;20322;-69
2024/01/16 14:42:12;;;;;;;;;;;;;;;;;;5057032;28;20011;-68
2024/01/16 14:44:39;;;;;;;;;;;;;;;;;;5056854;28;19908;-70
2024/01/16 14:47:05;;;;;;;;;;;;;;;;;;5056938;28;20452;-70
2024/01/16 14:49:32;;;;;;;;;;;;;;;;;;5055608;28;19960;-70
2024/01/16 14:51:59;;;;;;;;;;;;;;;;;;5056521;28;20019;-69
2024/01/16 14:54:25;;;;;;;;;;;;;;;;;;5057108;28;20357;-70
2024/01/16 14:56:51;;;;;;;;;;;;;;;;;;5056611;28;19967;-69
2024/01/16 14:59:17;;;;;;;;;;;;;;;;;;5056426;28;19909;-70
2024/01/16 15:01:44;;;;;;;;;;;;;;;;;;5056578;28;19909;-70
2024/01/16 15:04:10;;;;;;;;;;;;;;;;;;5056367;28;20365;-70
2024/01/16 15:06:36;;;;;;;;;;;;;;;;;;5056531;28;20011;-70
2024/01/16 15:09:02;;;;;;;;;;;;;;;;;;5055267;28;19959;-68
2024/01/16 15:11:27;;;;;;;;;;;;;;;;;;5055666;28;19915;-69
2024/01/16 15:13:57;;;;;;;;;;;;;;;;;;5056351;28;19973;-69
2024/01/16 15:16:24;;;;;;;;;;;;;;;;;;5056375;28;19915;-69
2024/01/16 15:18:50;;;;;;;;;;;;;;;;;;5055859;28;20058;-69
2024/01/16 15:21:15;;;;;;;;;;;;;;;;;;5056390;28;20376;-69
2024/01/16 15:23:41;;;;;;;;;;;;;;;;;;5056251;28;20274;-69
2024/01/16 15:26:07;;;;;;;;;;;;;;;;;;5055742;28;19999;-69
2024/01/16 15:28:33;;;;;;;;;;;;;;;;;;5056006;28;19909;-69
2024/01/16 15:31:06;;;;;;;;;;;;;;;;;;5056087;28;19956;-69
2024/01/16 15:33:34;;;;;;;;;;;;;;;;;;5054681;28;19956;-69
2024/01/16 15:36:00;;;;;;;;;;;;;;;;;;5055867;28;19919;-69
2024/01/16 15:38:26;;;;;;;;;;;;;;;;;;5054656;28;20281;-69
2024/01/16 15:40:52;;;;;;;;;;;;;;;;;;5055328;28;19909;-69
2024/01/16 15:43:18;;;;;;;;;;;;;;;;;;5056244;28;19955;-69
2024/01/16 15:45:44;;;;;;;;;;;;;;;;;;5055760;28;19928;-69
2024/01/16 15:48:10;;;;;;;;;;;;;;;;;;5055360;28;19908;-70
2024/01/16 15:50:37;;;;;;;;;;;;;;;;;;5054496;28;20321;-70
2024/01/16 15:53:05;;;;;;;;;;;;;;;;;;5055706;28;20362;-69
2024/01/16 15:55:31;;;;;;;;;;;;;;;;;;5055201;28;19938;-69
2024/01/16 15:57:57;;;;;;;;;;;;;;;;;;5055798;28;19999;-69
2024/01/16 16:00:23;;;;;;;;;;;;;;;;;;5055656;28;19909;-70
2024/01/16 16:02:49;;;;;;;;;;;;;;;;;;5054500;28;19970;-70
2024/01/16 16:05:14;;;;;;;;;;;;;;;;;;5055513;28;19998;-69
2024/01/16 16:07:40;;;;;;;;;;;;;;;;;;5053758;28;19913;-69
2024/01/16 16:10:06;;;;;;;;;;;;;;;;;;5054111;28;19945;-70
2024/01/16 16:12:32;;;;;;;;;;;;;;;;;;5054125;28;19909;-69
2024/01/16 16:14:58;;;;;;;;;;;;;;;;;;5055357;28;20354;-70
2024/01/16 16:17:24;;;;;;;;;;;;;;;;;;5053899;28;20277;-69
2024/01/16 16:19:51;;;;;;;;;;;;;;;;;;5055097;28;20377;-68
2024/01/16 16:22:17;;;;;;;;;;;;;;;;;;5053607;28;19999;-68
2024/01/16 16:24:43;;;;;;;;;;;;;;;;;;5054943;28;19952;-68
2024/01/16 16:27:09;;;;;;;;;;;;;;;;;;5054959;28;19923;-68
2024/01/16 16:29:35;;;;;;;;;;;;;;;;;;5054664;28;19951;-68
2024/01/16 16:32:01;;;;;;;;;;;;;;;;;;5055191;28;19916;-70
2024/01/16 16:34:27;;;;;;;;;;;;;;;;;;5055177;28;19909;-68
2024/01/16 16:36:53;;;;;;;;;;;;;;;;;;5054544;28;19913;-69